createdAt,value
2023-05-07T00:02:35.456Z,7.37
2023-05-07T00:05:24.567Z,7.20
2023-05-07T00:08:13.578Z,6.30
2023-05-07T00:11:02.400Z,6.90
2023-05-07T00:13:51.214Z,7.17
2023-05-07T00:16:39.999Z,7.50
2023-05-07T00:19:30.128Z,8.13
2023-05-07T00:22:18.912Z,7.50
2023-05-07T00:25:08.560Z,8.20
2023-05-07T00:27:58.888Z,8.63
2023-05-07T00:30:47.672Z,8.87
2023-05-07T00:33:36.337Z,7.37
2023-05-07T00:36:27.387Z,7.67
2023-05-07T00:39:16.458Z,8.70
2023-05-07T00:42:07.880Z,7.97
2023-05-07T00:44:56.817Z,8.03
2023-05-07T00:47:45.851Z,8.07
2023-05-07T00:50:35.402Z,8.17
2023-05-07T00:53:25.997Z,8.00
2023-05-07T00:56:15.268Z,8.60
2023-05-07T00:59:04.878Z,9.13
2023-05-07T01:01:54.468Z,9.33
2023-05-07T01:04:43.225Z,9.03
2023-05-07T01:07:34.288Z,8.40
2023-05-07T01:10:25.911Z,7.57
2023-05-07T01:13:16.567Z,8.50
2023-05-07T01:16:06.549Z,9.50
2023-05-07T01:18:55.627Z,9.67
2023-05-07T01:21:48.701Z,9.07
2023-05-07T01:24:41.135Z,9.50
2023-05-07T01:27:31.129Z,9.20
2023-05-07T01:30:22.942Z,10.77
2023-05-07T01:33:15.489Z,8.63
2023-05-07T01:36:07.782Z,9.00
2023-05-07T01:38:59.713Z,9.43
2023-05-07T01:41:49.868Z,8.37
2023-05-07T01:44:38.903Z,8.97
2023-05-07T01:47:28.129Z,8.20
2023-05-07T01:50:19.314Z,7.57
2023-05-07T01:53:08.624Z,8.90
2023-05-07T01:55:57.347Z,8.93
2023-05-07T01:58:48.931Z,9.10
2023-05-07T02:01:37.641Z,9.20
2023-05-07T02:04:26.526Z,8.50
2023-05-07T02:07:15.843Z,8.77
2023-05-07T02:10:05.330Z,8.43
2023-05-07T02:12:54.272Z,8.53
2023-05-07T02:15:47.288Z,7.23
2023-05-07T02:18:36.884Z,8.63
2023-05-07T02:21:26.259Z,8.90
2023-05-07T02:24:14.889Z,8.70
2023-05-07T02:27:04.305Z,7.90
2023-05-07T02:29:53.093Z,7.40
2023-05-07T02:32:43.399Z,6.23
2023-05-07T02:35:32.276Z,7.47
2023-05-07T02:38:20.964Z,7.00
2023-05-07T02:41:09.827Z,6.60
2023-05-07T02:43:58.690Z,5.80
2023-05-07T02:46:47.785Z,6.10
2023-05-07T02:49:38.329Z,5.83
2023-05-07T02:52:28.156Z,6.50
2023-05-07T02:55:17.304Z,6.53
2023-05-07T02:58:06.091Z,6.30
2023-05-07T03:00:57.416Z,6.10
2023-05-07T03:04:14.143Z,5.67
2023-05-07T03:07:04.341Z,5.80
2023-05-07T03:09:53.050Z,6.03
2023-05-07T03:12:41.996Z,5.73
2023-05-07T03:15:33.285Z,5.00
2023-05-07T03:18:22.217Z,5.43
2023-05-07T03:21:11.072Z,5.30
2023-05-07T03:24:01.852Z,5.30
2023-05-07T03:26:50.857Z,4.80
2023-05-07T03:29:39.625Z,5.53
2023-05-07T03:32:28.636Z,5.47
2023-05-07T03:35:17.393Z,5.17
2023-05-07T03:38:06.480Z,4.87
2023-05-07T03:40:59.252Z,4.97
2023-05-07T03:43:50.086Z,4.90
2023-05-07T03:46:39.933Z,4.90
2023-05-07T03:49:30.362Z,4.60
2023-05-07T03:52:23.455Z,4.17
2023-05-07T03:55:12.361Z,4.33
2023-05-07T03:58:05.654Z,4.47
2023-05-07T04:00:54.751Z,5.37
2023-05-07T04:03:48.740Z,5.00
2023-05-07T04:06:37.719Z,4.93
2023-05-07T04:09:26.495Z,4.43
2023-05-07T04:12:17.434Z,4.40
2023-05-07T04:15:08.820Z,4.40
2023-05-07T04:17:57.874Z,3.80
2023-05-07T04:20:47.856Z,4.40
2023-05-07T04:23:38.050Z,4.30
2023-05-07T04:26:31.376Z,3.87
2023-05-07T04:29:20.684Z,4.20
2023-05-07T04:32:11.377Z,4.40
2023-05-07T04:35:02.540Z,3.93
2023-05-07T04:37:51.646Z,4.00
2023-05-07T04:40:40.939Z,4.20
2023-05-07T04:43:31.786Z,3.60
2023-05-07T04:46:21.293Z,3.57
2023-05-07T04:49:13.266Z,3.80
2023-05-07T04:52:02.359Z,3.60
2023-05-07T04:54:51.199Z,3.63
2023-05-07T04:57:40.637Z,3.50
2023-05-07T05:00:30.318Z,3.40
2023-05-07T05:03:21.431Z,3.27
2023-05-07T05:06:12.402Z,3.30
2023-05-07T05:09:01.187Z,4.10
2023-05-07T05:11:52.245Z,3.30
2023-05-07T05:14:40.939Z,3.00
2023-05-07T05:17:30.515Z,3.40
2023-05-07T05:20:19.713Z,3.20
2023-05-07T05:23:12.431Z,3.47
2023-05-07T05:26:02.267Z,3.40
2023-05-07T05:28:54.062Z,3.70
2023-05-07T05:31:45.837Z,3.23
2023-05-07T05:34:34.747Z,3.20
2023-05-07T05:37:23.823Z,2.90
2023-05-07T05:40:14.988Z,2.60
2023-05-07T05:43:03.972Z,2.90
2023-05-07T05:45:53.641Z,2.73
2023-05-07T05:48:42.618Z,3.00
2023-05-07T05:51:33.389Z,2.77
2023-05-07T05:54:22.315Z,2.70
2023-05-07T05:57:12.780Z,2.70
2023-05-07T06:00:02.429Z,2.87
2023-05-07T06:02:54.800Z,2.30
2023-05-07T06:05:46.020Z,2.30
2023-05-07T06:08:34.974Z,2.50
2023-05-07T06:11:24.142Z,2.30
2023-05-07T06:14:14.357Z,2.10
2023-05-07T06:17:03.503Z,2.60
2023-05-07T06:19:52.424Z,2.50
2023-05-07T06:22:42.816Z,2.37
2023-05-07T06:25:33.484Z,2.57
2023-05-07T06:28:22.292Z,2.53
2023-05-07T06:31:17.557Z,2.37
2023-05-07T06:34:16.314Z,2.37
2023-05-07T06:37:05.349Z,2.30
2023-05-07T06:40:09.709Z,2.40
2023-05-07T06:43:01.100Z,2.30
2023-05-07T06:46:03.689Z,2.30
2023-05-07T06:48:54.631Z,2.10
2023-05-07T06:51:43.760Z,2.60
2023-05-07T06:54:32.502Z,2.20
2023-05-07T06:57:21.251Z,2.10
2023-05-07T07:00:11.555Z,2.27
2023-05-07T07:03:09.236Z,2.47
2023-05-07T07:05:59.540Z,2.90
2023-05-07T07:08:48.729Z,2.60
2023-05-07T07:11:39.531Z,2.40
2023-05-07T07:14:29.053Z,2.57
2023-05-07T07:17:18.020Z,2.30
2023-05-07T07:20:08.775Z,2.40
2023-05-07T07:23:00.915Z,2.37
2023-05-07T07:25:49.791Z,2.57
2023-05-07T07:28:45.624Z,2.27
2023-05-07T07:31:37.000Z,2.27
2023-05-07T07:34:26.216Z,2.70
2023-05-07T07:37:15.367Z,2.60
2023-05-07T07:40:06.179Z,2.47
2023-05-07T07:42:56.826Z,2.50
2023-05-07T07:45:47.041Z,2.35
2023-05-07T07:48:36.339Z,2.30
2023-05-07T07:51:25.079Z,2.37
2023-05-07T07:54:14.122Z,2.47
2023-05-07T07:57:04.499Z,2.42
2023-05-07T07:59:55.588Z,2.37
2023-05-07T08:02:44.960Z,2.03
2023-05-07T08:05:41.598Z,2.20
2023-05-07T08:08:30.379Z,2.60
2023-05-07T08:11:20.116Z,2.30
2023-05-07T08:14:10.604Z,2.10
2023-05-07T08:16:59.459Z,2.45
2023-05-07T08:19:48.289Z,2.63
2023-05-07T08:22:37.855Z,2.42
2023-05-07T08:25:27.060Z,2.10
2023-05-07T08:28:16.629Z,2.30
2023-05-07T08:31:06.855Z,2.40
2023-05-07T08:33:59.562Z,2.20
2023-05-07T08:36:49.580Z,2.00
2023-05-07T08:39:42.668Z,2.15
2023-05-07T08:42:39.217Z,2.25
2023-05-07T08:45:30.214Z,2.08
2023-05-07T08:48:22.080Z,2.25
2023-05-07T08:51:20.161Z,2.00
2023-05-07T08:54:09.564Z,2.10
2023-05-07T08:56:58.750Z,2.10
2023-05-07T08:59:47.579Z,2.25
2023-05-07T09:02:38.443Z,2.05
2023-05-07T09:05:30.101Z,2.03
2023-05-07T09:08:19.066Z,2.25
2023-05-07T09:11:11.044Z,2.15
2023-05-07T09:14:02.582Z,2.20
2023-05-07T09:16:56.264Z,2.00
2023-05-07T09:19:47.007Z,1.98
2023-05-07T09:22:38.907Z,2.05
2023-05-07T09:25:32.539Z,1.90
2023-05-07T09:28:25.939Z,2.20
2023-05-07T09:31:15.170Z,1.92
2023-05-07T09:34:04.526Z,1.70
2023-05-07T09:36:56.258Z,2.40
2023-05-07T09:39:48.674Z,1.90
2023-05-07T09:42:40.873Z,1.92
2023-05-07T09:45:30.105Z,1.90
2023-05-07T09:48:21.504Z,2.22
2023-05-07T09:51:23.314Z,1.95
2023-05-07T09:54:12.927Z,1.88
2023-05-07T09:57:07.312Z,1.88
2023-05-07T09:59:58.511Z,2.25
2023-05-07T10:02:53.160Z,2.28
2023-05-07T10:05:49.434Z,2.17
2023-05-07T10:08:39.194Z,2.13
2023-05-07T10:11:33.282Z,2.00
2023-05-07T10:14:24.590Z,1.90
2023-05-07T10:17:14.656Z,1.90
2023-05-07T10:20:05.304Z,1.70
2023-05-07T10:22:58.455Z,1.70
2023-05-07T10:26:00.688Z,2.15
2023-05-07T10:29:00.464Z,1.77
2023-05-07T10:32:01.184Z,1.80
2023-05-07T10:34:55.606Z,1.55
2023-05-07T10:37:45.194Z,2.08
2023-05-07T10:40:34.535Z,1.60
2023-05-07T10:43:24.415Z,1.65
2023-05-07T10:46:21.249Z,1.90
2023-05-07T10:49:24.658Z,1.85
2023-05-07T10:52:22.365Z,1.73
2023-05-07T10:55:28.409Z,2.05
2023-05-07T10:58:43.308Z,2.20
2023-05-07T11:01:54.097Z,1.98
2023-05-07T11:05:23.277Z,1.73
2023-05-07T11:08:55.597Z,2.10
2023-05-07T11:11:52.265Z,1.98
2023-05-07T11:14:48.885Z,1.90
2023-05-07T11:18:00.313Z,1.80
2023-05-07T11:21:01.318Z,1.48
2023-05-07T11:24:01.488Z,1.67
2023-05-07T11:26:57.222Z,1.88
2023-05-07T11:29:49.581Z,1.70
2023-05-07T11:32:38.731Z,1.90
2023-05-07T11:35:28.004Z,2.35
2023-05-07T11:38:20.741Z,1.83
2023-05-07T11:41:10.293Z,1.63
2023-05-07T11:44:00.959Z,1.77
2023-05-07T11:46:50.648Z,1.85
2023-05-07T11:49:39.502Z,1.77
2023-05-07T11:52:28.227Z,1.98
2023-05-07T11:55:21.361Z,1.70
2023-05-07T11:58:12.800Z,2.08
2023-05-07T12:01:02.039Z,2.00
2023-05-07T12:03:50.899Z,1.70
2023-05-07T12:06:40.530Z,1.70
2023-05-07T12:09:29.466Z,1.67
2023-05-07T12:12:19.781Z,1.75
2023-05-07T12:15:10.120Z,1.90
2023-05-07T12:17:59.120Z,1.80
2023-05-07T12:20:48.228Z,1.90
2023-05-07T12:23:38.461Z,1.70
2023-05-07T12:26:27.678Z,1.77
2023-05-07T12:29:17.939Z,1.60
2023-05-07T12:32:08.281Z,2.13
2023-05-07T12:34:57.090Z,1.63
2023-05-07T12:37:56.508Z,2.00
2023-05-07T12:40:46.563Z,2.15
2023-05-07T12:43:35.406Z,1.48
2023-05-07T12:46:25.718Z,1.60
2023-05-07T12:49:14.987Z,1.70
2023-05-07T12:52:04.057Z,1.58
2023-05-07T12:54:53.241Z,1.90
2023-05-07T12:57:43.011Z,1.80
2023-05-07T13:00:36.309Z,1.50
2023-05-07T13:03:29.326Z,1.42
2023-05-07T13:06:18.489Z,1.50
2023-05-07T13:09:08.156Z,1.73
2023-05-07T13:11:57.146Z,1.40
2023-05-07T13:14:45.974Z,1.45
2023-05-07T13:17:34.754Z,1.52
2023-05-07T13:20:25.143Z,1.50
2023-05-07T13:23:13.837Z,1.55
2023-05-07T13:26:08.493Z,1.88
2023-05-07T13:29:00.618Z,1.90
2023-05-07T13:31:50.487Z,1.70
2023-05-07T13:34:39.361Z,1.80
2023-05-07T13:37:29.655Z,1.83
2023-05-07T13:40:18.571Z,1.58
2023-05-07T13:43:09.150Z,1.60
2023-05-07T13:45:57.997Z,1.70
2023-05-07T13:48:46.931Z,1.88
2023-05-07T13:51:35.870Z,1.38
2023-05-07T13:54:26.007Z,1.50
2023-05-07T13:57:14.788Z,1.77
2023-05-07T14:00:07.386Z,1.70
2023-05-07T14:03:04.624Z,2.08
2023-05-07T14:05:53.498Z,1.38
2023-05-07T14:08:42.423Z,1.70
2023-05-07T14:11:36.456Z,1.73
2023-05-07T14:14:25.490Z,1.88
2023-05-07T14:17:14.274Z,1.70
2023-05-07T14:20:03.937Z,1.80
2023-05-07T14:22:53.209Z,2.00
2023-05-07T14:25:42.348Z,1.70
2023-05-07T14:28:33.537Z,1.50
2023-05-07T14:31:22.585Z,1.90
2023-05-07T14:34:11.804Z,1.73
2023-05-07T14:37:01.043Z,1.77
2023-05-07T14:39:50.973Z,1.80
2023-05-07T14:42:40.097Z,1.80
2023-05-07T14:45:31.146Z,1.90
2023-05-07T14:48:21.230Z,1.58
2023-05-07T14:51:10.149Z,1.70
2023-05-07T14:53:58.950Z,1.83
2023-05-07T14:56:47.837Z,1.70
2023-05-07T14:59:36.722Z,1.67
2023-05-07T15:02:27.119Z,1.70
2023-05-07T15:05:16.884Z,1.85
2023-05-07T15:08:06.289Z,2.03
2023-05-07T15:10:56.287Z,1.70
2023-05-07T15:13:45.173Z,1.80
2023-05-07T15:16:36.805Z,1.80
2023-05-07T15:19:30.177Z,2.00
2023-05-07T15:22:20.102Z,1.50
2023-05-07T15:25:10.550Z,1.52
2023-05-07T15:27:59.630Z,1.70
2023-05-07T15:30:48.501Z,1.75
2023-05-07T15:33:37.716Z,1.70
2023-05-07T15:36:28.876Z,1.80
2023-05-07T15:39:17.645Z,1.92
2023-05-07T15:42:06.594Z,1.90
2023-05-07T15:44:55.551Z,2.05
2023-05-07T15:47:44.347Z,1.75
2023-05-07T15:50:33.603Z,1.75
2023-05-07T15:53:23.795Z,1.85
2023-05-07T15:56:12.837Z,2.00
2023-05-07T15:59:02.459Z,1.92
2023-05-07T16:01:51.546Z,1.70
2023-05-07T16:04:40.310Z,1.95
2023-05-07T16:07:29.316Z,1.92
2023-05-07T16:10:19.670Z,1.70
2023-05-07T16:13:08.983Z,2.00
2023-05-07T16:15:58.917Z,2.03
2023-05-07T16:18:47.679Z,2.35
2023-05-07T16:21:36.910Z,2.63
2023-05-07T16:24:26.194Z,2.10
2023-05-07T16:27:16.308Z,2.08
2023-05-07T16:30:05.619Z,2.03
2023-05-07T16:32:56.733Z,1.95
2023-05-07T16:35:47.700Z,2.10
2023-05-07T16:38:36.650Z,1.98
2023-05-07T16:41:26.243Z,2.00
2023-05-07T16:44:16.462Z,2.20
2023-05-07T16:47:05.430Z,2.03
2023-05-07T16:49:54.558Z,2.13
2023-05-07T16:52:43.554Z,2.10
2023-05-07T16:55:37.388Z,2.55
2023-05-07T16:58:28.181Z,2.13
2023-05-07T17:01:19.097Z,2.33
2023-05-07T17:04:07.934Z,2.20
2023-05-07T17:06:57.020Z,2.60
2023-05-07T17:09:45.959Z,2.10
2023-05-07T17:12:36.072Z,2.22
2023-05-07T17:15:25.099Z,2.58
2023-05-07T17:18:15.300Z,1.85
2023-05-07T17:21:04.246Z,2.40
2023-05-07T17:23:53.024Z,2.35
2023-05-07T17:26:43.281Z,2.25
2023-05-07T17:29:32.296Z,2.22
2023-05-07T17:32:21.106Z,2.58
2023-05-07T17:35:11.987Z,2.53
2023-05-07T17:38:01.366Z,2.28
2023-05-07T17:40:50.280Z,2.67
2023-05-07T17:43:39.151Z,2.30
2023-05-07T17:46:28.054Z,2.53
2023-05-07T17:49:17.401Z,2.53
2023-05-07T17:52:07.743Z,2.33
2023-05-07T17:54:56.619Z,2.70
2023-05-07T17:57:45.532Z,2.58
2023-05-07T18:00:34.556Z,2.22
2023-05-07T18:03:24.853Z,2.92
2023-05-07T18:06:18.016Z,2.17
2023-05-07T18:09:08.231Z,2.80
2023-05-07T18:11:57.149Z,2.40
2023-05-07T18:14:47.540Z,3.15
2023-05-07T18:17:36.388Z,2.53
2023-05-07T18:20:25.570Z,3.10
2023-05-07T18:23:14.444Z,2.42
2023-05-07T18:26:07.076Z,2.63
2023-05-07T18:28:57.161Z,2.50
2023-05-07T18:31:46.118Z,2.70
2023-05-07T18:34:35.249Z,2.90
2023-05-07T18:37:26.048Z,3.10
2023-05-07T18:40:15.757Z,2.55
2023-05-07T18:43:07.180Z,3.03
2023-05-07T18:45:56.426Z,3.10
2023-05-07T18:48:45.301Z,3.20
2023-05-07T18:51:34.223Z,2.95
2023-05-07T18:54:23.047Z,3.00
2023-05-07T18:57:11.861Z,3.25
2023-05-07T19:00:02.388Z,3.15
2023-05-07T19:02:51.664Z,2.90
2023-05-07T19:05:40.575Z,3.63
2023-05-07T19:08:30.141Z,3.22
2023-05-07T19:11:19.012Z,3.58
2023-05-07T19:14:08.007Z,3.63
2023-05-07T19:16:58.393Z,3.30
2023-05-07T19:19:49.119Z,3.50
2023-05-07T19:22:37.958Z,3.75
2023-05-07T19:25:26.890Z,3.45
2023-05-07T19:28:15.910Z,3.67
2023-05-07T19:31:04.782Z,3.92
2023-05-07T19:33:55.675Z,3.38
2023-05-07T19:36:44.551Z,3.28
2023-05-07T19:39:33.569Z,3.60
2023-05-07T19:42:22.372Z,3.63
2023-05-07T19:45:11.947Z,3.33
2023-05-07T19:48:01.236Z,3.58
2023-05-07T19:50:51.517Z,3.97
2023-05-07T19:53:40.472Z,4.22
2023-05-07T19:56:29.421Z,4.50
2023-05-07T19:59:18.320Z,3.72
2023-05-07T20:02:07.871Z,4.22
2023-05-07T20:04:56.765Z,3.92
2023-05-07T20:07:46.991Z,4.10
2023-05-07T20:10:35.867Z,3.65
2023-05-07T20:13:25.132Z,3.90
2023-05-07T20:16:14.076Z,3.67
2023-05-07T20:19:03.306Z,3.80
2023-05-07T20:21:52.973Z,4.10
2023-05-07T20:24:43.287Z,3.90
2023-05-07T20:27:34.645Z,3.70
2023-05-07T20:30:24.465Z,4.38
2023-05-07T20:33:13.670Z,3.95
2023-05-07T20:36:02.453Z,4.60
2023-05-07T20:38:51.314Z,4.05
2023-05-07T20:41:42.102Z,4.00
2023-05-07T20:44:34.245Z,4.05
2023-05-07T20:47:23.380Z,4.40
2023-05-07T20:50:12.857Z,4.45
2023-05-07T20:53:02.303Z,4.20
2023-05-07T20:55:51.445Z,4.65
2023-05-07T20:58:41.639Z,4.60
2023-05-07T21:01:31.145Z,4.30
2023-05-07T21:04:19.953Z,5.25
2023-05-07T21:07:09.322Z,4.82
2023-05-07T21:09:58.611Z,4.85
2023-05-07T21:12:47.419Z,5.20
2023-05-07T21:15:37.957Z,5.15
2023-05-07T21:18:26.901Z,5.28
2023-05-07T21:21:21.015Z,5.82
2023-05-07T21:24:10.236Z,5.68
2023-05-07T21:27:00.047Z,5.25
2023-05-07T21:29:48.926Z,6.07
2023-05-07T21:32:39.164Z,6.63
2023-05-07T21:35:28.050Z,6.53
2023-05-07T21:38:18.111Z,6.45
2023-05-07T21:41:07.347Z,6.70
2023-05-07T21:43:56.436Z,6.88
2023-05-07T21:46:45.645Z,7.35
2023-05-07T21:49:36.134Z,8.63
2023-05-07T21:52:26.168Z,6.82
2023-05-07T21:55:15.144Z,7.93
2023-05-07T21:58:05.921Z,7.60
2023-05-07T22:00:55.297Z,7.72
2023-05-07T22:03:44.544Z,8.43
2023-05-07T22:06:34.914Z,8.68
2023-05-07T22:09:23.791Z,8.80
2023-05-07T22:12:12.670Z,8.93
2023-05-07T22:15:01.946Z,8.63
2023-05-07T22:17:51.066Z,9.90
2023-05-07T22:20:39.972Z,8.75
2023-05-07T22:23:30.236Z,9.57
2023-05-07T22:26:18.913Z,9.48
2023-05-07T22:29:07.588Z,9.68
2023-05-07T22:31:56.784Z,10.15
2023-05-07T22:34:45.531Z,9.70
2023-05-07T22:37:34.293Z,8.80
2023-05-07T22:40:24.372Z,8.68
2023-05-07T22:43:13.137Z,8.85
2023-05-07T22:46:02.390Z,9.50
2023-05-07T22:48:51.414Z,8.90
2023-05-07T22:51:40.306Z,9.13
2023-05-07T22:54:29.017Z,9.32
2023-05-07T22:57:19.133Z,9.32
2023-05-07T23:00:09.920Z,9.57
2023-05-07T23:02:58.984Z,9.13
2023-05-07T23:05:48.490Z,9.00
2023-05-07T23:08:37.341Z,8.98
2023-05-07T23:11:26.438Z,9.63
2023-05-07T23:14:16.815Z,9.68
2023-05-07T23:17:05.789Z,9.95
2023-05-07T23:19:54.544Z,8.80
2023-05-07T23:22:43.354Z,9.80
2023-05-07T23:25:32.436Z,9.93
2023-05-07T23:28:21.121Z,8.93
2023-05-07T23:31:12.797Z,9.40
2023-05-07T23:34:02.037Z,8.93
2023-05-07T23:36:51.200Z,8.27
2023-05-07T23:39:40.387Z,9.10
2023-05-07T23:42:29.274Z,9.20
2023-05-07T23:45:18.219Z,9.75
2023-05-07T23:48:08.671Z,9.55
2023-05-07T23:50:57.512Z,9.32
2023-05-07T23:53:46.454Z,8.80
2023-05-07T23:56:35.430Z,8.80
2023-05-07T23:59:24.106Z,9.85
